NCAR-RAP Real-Time Weather Data

Output produced by METARs form (08 May 2021  01:50 UTC)
found at http://weather.rap.ucar.edu/surface/
 
KSFF 080053Z 24015G26KT 10SM SCT060 BKN090 12/M02 A3002 RMK AO2 PK WND 20029/2355 SLP166 T01221022
KSFF 072353Z 20016G26KT 10SM BKN080 12/M01 A3000 RMK AO2 PK WND 18026/2338 RAB27E36 SLP160 P0000 60000 T01171011 10150 20117 58002
KSFF 072253Z 21014G21KT 10SM SCT060 OVC110 14/M06 A3000 RMK AO2 SLP155 T01391061
KSFF 072153Z 22018G29KT 10SM SCT080 OVC100 13/M05 A3002 RMK AO2 PK WND 23031/2114 SLP164 T01281050
KSFF 072053Z 25009G20KT 10SM FEW060 BKN080 OVC110 14/M06 A3001 RMK AO2 SLP159 T01391056 58006
KSFF 071953Z 22013G20KT 10SM SCT070 BKN100 14/M06 A3002 RMK AO2 SLP161 T01391056
KSFF 071853Z 23014G21KT 200V270 10SM CLR 14/M06 A3003 RMK AO2 SLP163 T01391056
KSFF 071753Z 23010G20KT 10SM CLR 13/M04 A3003 RMK AO2 SLP164 T01331044 10139 20094 58002
KSFF 071653Z 21013G22KT 10SM FEW046 12/M01 A3004 RMK AO2 SLP165 T01171011
KSFF 071553Z 23011KT 10SM FEW036 11/01 A3004 RMK AO2 SLP167 T01110011
KSFF 071453Z 23013KT 10SM CLR 11/00 A3004 RMK AO2 SLP164 T01060000 52012
KSFF 071353Z 23011G18KT 10SM CLR 10/M01 A3003 RMK AO2 SLP159 T01001006
KSFF 071253Z AUTO 23008KT 10SM OVC120 10/00 A3001 RMK AO2 SLP152 T01000000